createdAt,value
2022-08-29T00:00:31.123Z,511.13
2022-08-29T00:03:03.208Z,512.42
2022-08-29T00:05:40.111Z,505.42
2022-08-29T00:08:11.089Z,509.48
2022-08-29T00:10:39.140Z,494.02
2022-08-29T00:13:08.535Z,529.35
2022-08-29T00:15:41.665Z,516.67
2022-08-29T00:18:14.635Z,504.83
2022-08-29T00:20:42.532Z,494.05
2022-08-29T00:23:10.041Z,485.40
2022-08-29T00:25:37.578Z,490.92
2022-08-29T00:28:05.121Z,525.15
2022-08-29T00:30:33.360Z,497.52
2022-08-29T00:33:00.021Z,520.28
2022-08-29T00:35:32.077Z,514.92
2022-08-29T00:37:59.125Z,498.27
2022-08-29T00:40:34.777Z,505.83
2022-08-29T00:43:01.986Z,487.05
2022-08-29T00:45:29.569Z,491.98
2022-08-29T00:48:06.187Z,499.88
2022-08-29T00:50:39.006Z,500.92
2022-08-29T00:53:10.344Z,519.90
2022-08-29T00:55:39.041Z,529.47
2022-08-29T00:58:18.395Z,546.92
2022-08-29T01:00:46.236Z,551.03
2022-08-29T01:03:13.570Z,546.85
2022-08-29T01:05:41.457Z,554.95
2022-08-29T01:08:08.162Z,569.40
2022-08-29T01:10:57.522Z,574.97
2022-08-29T01:13:30.039Z,558.95
2022-08-29T01:15:58.206Z,564.63
2022-08-29T01:18:27.451Z,566.65
2022-08-29T01:21:15.474Z,570.55
2022-08-29T01:23:46.156Z,572.37
2022-08-29T01:26:13.297Z,572.38
2022-08-29T01:28:43.578Z,559.13
2022-08-29T01:31:15.535Z,543.13
2022-08-29T01:34:02.949Z,542.05
2022-08-29T01:37:04.030Z,559.03
2022-08-29T01:39:34.253Z,557.88
2022-08-29T01:42:05.854Z,536.97
2022-08-29T01:44:33.463Z,551.50
2022-08-29T01:47:07.329Z,560.42
2022-08-29T01:49:38.767Z,552.57
2022-08-29T01:52:08.644Z,544.00
2022-08-29T01:54:35.341Z,539.20
2022-08-29T01:57:02.054Z,540.53
2022-08-29T01:59:30.639Z,536.47
2022-08-29T02:02:08.451Z,529.30
2022-08-29T02:04:35.463Z,529.15
2022-08-29T02:07:07.320Z,513.70
2022-08-29T02:09:37.265Z,519.22
2022-08-29T02:12:07.063Z,511.27
2022-08-29T02:14:35.479Z,513.72
2022-08-29T02:17:07.204Z,517.90
2022-08-29T02:19:37.448Z,513.00
2022-08-29T02:22:05.369Z,509.00
2022-08-29T02:24:32.613Z,509.38
2022-08-29T02:26:59.368Z,506.87
2022-08-29T02:29:35.238Z,507.98
2022-08-29T02:32:11.867Z,497.33
2022-08-29T02:34:38.699Z,496.77
2022-08-29T02:37:06.040Z,490.97
2022-08-29T02:39:33.881Z,481.50
2022-08-29T02:42:00.881Z,475.92
2022-08-29T02:44:27.799Z,478.83
2022-08-29T02:46:54.535Z,477.70
2022-08-29T02:49:23.851Z,474.10
2022-08-29T02:51:50.448Z,469.50
2022-08-29T02:54:17.245Z,459.55
2022-08-29T02:56:43.852Z,460.33
2022-08-29T02:59:10.672Z,461.23
2022-08-29T03:01:39.071Z,475.50
2022-08-29T03:04:06.367Z,474.85
2022-08-29T03:06:33.509Z,464.08
2022-08-29T03:09:00.253Z,493.30
2022-08-29T03:11:28.606Z,461.25
2022-08-29T03:13:57.624Z,446.42
2022-08-29T03:16:25.734Z,449.10
2022-08-29T03:18:52.439Z,455.00
2022-08-29T03:21:22.038Z,451.27
2022-08-29T03:23:49.834Z,468.05
2022-08-29T03:26:17.472Z,466.48
2022-08-29T03:28:44.519Z,462.37
2022-08-29T03:31:11.378Z,463.75
2022-08-29T03:33:38.529Z,462.85
2022-08-29T03:36:08.806Z,467.60
2022-08-29T03:38:41.282Z,461.25
2022-08-29T03:41:08.940Z,452.80
2022-08-29T03:43:35.718Z,443.48
2022-08-29T03:46:02.346Z,446.70
2022-08-29T03:48:35.046Z,428.17
2022-08-29T03:51:02.503Z,446.55
2022-08-29T03:53:30.726Z,443.30
2022-08-29T03:55:58.043Z,431.90
2022-08-29T03:58:25.265Z,442.63
2022-08-29T04:00:52.045Z,445.17
2022-08-29T04:03:20.097Z,431.05
2022-08-29T04:05:49.113Z,425.95
2022-08-29T04:08:21.000Z,416.83
2022-08-29T04:10:47.702Z,422.75
2022-08-29T04:13:14.949Z,421.23
2022-08-29T04:15:42.795Z,406.65
2022-08-29T04:18:11.031Z,424.58
2022-08-29T04:20:40.123Z,394.27
2022-08-29T04:23:07.583Z,397.55
2022-08-29T04:25:37.954Z,401.00
2022-08-29T04:28:07.022Z,406.60
2022-08-29T04:30:34.939Z,413.35
2022-08-29T04:33:01.652Z,399.38
2022-08-29T04:35:29.841Z,394.52
2022-08-29T04:37:57.054Z,403.15
2022-08-29T04:40:23.784Z,387.97
2022-08-29T04:42:50.794Z,402.43
2022-08-29T04:45:20.974Z,381.90
2022-08-29T04:47:47.868Z,397.02
2022-08-29T04:50:20.747Z,394.88
2022-08-29T04:52:49.422Z,410.27
2022-08-29T04:55:21.488Z,392.20
2022-08-29T04:57:50.466Z,373.95
2022-08-29T05:00:23.281Z,388.92
2022-08-29T05:02:50.023Z,382.83
2022-08-29T05:05:17.081Z,373.92
2022-08-29T05:07:46.317Z,358.02
2022-08-29T05:10:17.279Z,361.00
2022-08-29T05:12:45.161Z,376.98
2022-08-29T05:15:13.299Z,391.85
2022-08-29T05:17:40.336Z,377.50
2022-08-29T05:20:08.523Z,388.52
2022-08-29T05:22:36.301Z,378.48
2022-08-29T05:25:04.918Z,374.60
2022-08-29T05:27:31.928Z,382.58
2022-08-29T05:29:58.577Z,376.27
2022-08-29T05:32:25.459Z,364.40
2022-08-29T05:34:52.120Z,375.33
2022-08-29T05:37:20.875Z,362.52
2022-08-29T05:39:48.651Z,367.08
2022-08-29T05:42:17.694Z,373.40
2022-08-29T05:44:44.532Z,379.17
2022-08-29T05:47:15.272Z,383.10
2022-08-29T05:49:46.077Z,373.92
2022-08-29T05:52:15.622Z,358.75
2022-08-29T05:54:44.057Z,364.90
2022-08-29T05:57:18.990Z,364.27
2022-08-29T05:59:52.093Z,354.73
2022-08-29T06:02:20.478Z,357.38
2022-08-29T06:04:49.866Z,354.50
2022-08-29T06:07:17.119Z,325.88
2022-08-29T06:09:44.964Z,353.83
2022-08-29T06:12:13.832Z,351.58
2022-08-29T06:14:41.440Z,316.30
2022-08-29T06:17:16.985Z,320.77
2022-08-29T06:19:43.869Z,314.50
2022-08-29T06:22:11.422Z,342.30
2022-08-29T06:24:44.559Z,321.52
2022-08-29T06:27:12.439Z,328.52
2022-08-29T06:29:43.396Z,336.63
2022-08-29T06:32:11.570Z,323.92
2022-08-29T06:34:38.286Z,305.85
2022-08-29T06:37:04.872Z,295.27
2022-08-29T06:39:31.790Z,312.40
2022-08-29T06:41:58.406Z,305.00
2022-08-29T06:44:26.537Z,304.48
2022-08-29T06:46:58.227Z,316.98
2022-08-29T06:49:25.796Z,324.77
2022-08-29T06:51:56.942Z,287.38
2022-08-29T06:54:27.940Z,291.35
2022-08-29T06:56:56.477Z,298.67
2022-08-29T06:59:23.078Z,287.90
2022-08-29T07:01:50.079Z,288.40
2022-08-29T07:04:16.924Z,296.55
2022-08-29T07:06:50.799Z,291.08
2022-08-29T07:09:17.714Z,280.10
2022-08-29T07:11:44.549Z,276.20
2022-08-29T07:14:12.344Z,294.33
2022-08-29T07:16:40.299Z,285.95
2022-08-29T07:19:09.041Z,286.17
2022-08-29T07:21:36.105Z,282.60
2022-08-29T07:24:04.890Z,295.92
2022-08-29T07:26:41.398Z,270.97
2022-08-29T07:29:14.994Z,278.42
2022-08-29T07:31:41.964Z,271.80
2022-08-29T07:34:09.305Z,260.98
2022-08-29T07:36:38.912Z,294.92
2022-08-29T07:39:08.310Z,279.10
2022-08-29T07:41:35.377Z,265.83
2022-08-29T07:44:02.089Z,252.65
2022-08-29T07:46:29.305Z,266.05
2022-08-29T07:48:58.097Z,246.32
2022-08-29T07:51:25.419Z,231.30
2022-08-29T07:53:52.785Z,246.57
2022-08-29T07:56:23.161Z,228.82
2022-08-29T07:58:51.855Z,218.75
2022-08-29T08:01:21.390Z,214.93
2022-08-29T08:03:50.651Z,230.48
2022-08-29T08:06:22.402Z,262.50
2022-08-29T08:08:49.973Z,265.52
2022-08-29T08:11:17.869Z,268.52
2022-08-29T08:13:44.644Z,254.82
2022-08-29T08:16:15.287Z,256.20
2022-08-29T08:18:43.657Z,268.17
2022-08-29T08:21:11.376Z,267.02
2022-08-29T08:23:38.573Z,269.77
2022-08-29T08:26:06.312Z,253.10
2022-08-29T08:28:33.231Z,246.52
2022-08-29T08:31:05.918Z,255.93
2022-08-29T08:33:35.478Z,256.17
2022-08-29T08:36:06.207Z,276.33
2022-08-29T08:38:32.854Z,263.00
2022-08-29T08:41:10.760Z,276.60
2022-08-29T08:43:50.377Z,260.45
2022-08-29T08:46:19.667Z,233.30
2022-08-29T08:48:48.319Z,240.07
2022-08-29T08:51:21.702Z,232.27
2022-08-29T08:53:56.547Z,237.00
2022-08-29T08:56:33.204Z,220.27
2022-08-29T08:59:26.273Z,198.95
2022-08-29T09:02:07.536Z,186.23
2022-08-29T09:04:56.660Z,157.27
2022-08-29T09:07:50.770Z,161.45
2022-08-29T09:10:47.551Z,172.35
2022-08-29T09:13:31.930Z,179.20
2022-08-29T09:16:01.282Z,178.40
2022-08-29T09:18:36.246Z,175.20
2022-08-29T09:21:39.354Z,188.65
2022-08-29T09:24:06.161Z,200.32
2022-08-29T09:26:32.976Z,201.13
2022-08-29T09:28:59.585Z,211.13
2022-08-29T09:31:35.533Z,212.63
2022-08-29T09:34:12.763Z,209.73
2022-08-29T09:36:47.701Z,217.73
2022-08-29T09:39:20.490Z,181.80
2022-08-29T09:41:54.697Z,177.68
2022-08-29T09:44:30.805Z,167.35
2022-08-29T09:47:21.951Z,174.82
2022-08-29T09:50:07.329Z,187.43
2022-08-29T09:52:35.389Z,196.43
2022-08-29T09:55:24.791Z,185.75
2022-08-29T09:58:03.846Z,194.55
2022-08-29T10:00:40.602Z,191.13
2022-08-29T10:03:10.754Z,192.53
2022-08-29T10:05:45.270Z,212.30
2022-08-29T10:08:35.187Z,231.63
2022-08-29T10:11:19.974Z,243.98
2022-08-29T10:13:54.889Z,238.38
2022-08-29T10:16:27.778Z,230.20
2022-08-29T10:19:04.429Z,197.77
2022-08-29T10:21:49.188Z,192.48
2022-08-29T10:24:32.974Z,194.05
2022-08-29T10:27:28.496Z,179.57
2022-08-29T10:30:00.812Z,171.45
2022-08-29T10:33:04.513Z,165.63
2022-08-29T10:36:00.988Z,169.68
2022-08-29T10:38:36.971Z,163.07
2022-08-29T10:41:21.701Z,166.88
2022-08-29T10:44:09.167Z,160.70
2022-08-29T10:47:02.685Z,156.10
2022-08-29T10:49:48.179Z,154.50
2022-08-29T10:52:29.948Z,141.50
2022-08-29T10:54:59.498Z,131.70
2022-08-29T10:57:47.308Z,133.30
2022-08-29T11:00:24.439Z,138.63
2022-08-29T11:03:50.871Z,131.45
2022-08-29T11:06:43.505Z,154.43
2022-08-29T11:09:25.460Z,127.72
2022-08-29T11:12:17.578Z,120.38
2022-08-29T11:15:02.946Z,120.35
2022-08-29T11:17:34.831Z,123.40
2022-08-29T11:20:13.714Z,136.27
2022-08-29T11:22:43.956Z,133.32
2022-08-29T11:25:20.963Z,140.07
2022-08-29T11:28:06.430Z,120.30
2022-08-29T11:31:00.278Z,103.28
2022-08-29T11:33:49.043Z,98.00
2022-08-29T11:36:28.014Z,90.32
2022-08-29T11:39:10.009Z,91.23
2022-08-29T11:41:46.811Z,85.57
2022-08-29T11:44:29.609Z,90.07
2022-08-29T11:46:57.731Z,82.50
2022-08-29T11:49:30.506Z,71.93
2022-08-29T11:52:13.457Z,84.30
2022-08-29T11:54:43.194Z,93.30
2022-08-29T11:57:12.209Z,94.70
2022-08-29T11:59:50.915Z,117.20
2022-08-29T12:02:32.810Z,103.53
2022-08-29T12:05:01.037Z,79.45
2022-08-29T12:07:40.705Z,84.30
2022-08-29T12:10:29.405Z,64.72
2022-08-29T12:13:06.440Z,61.30
2022-08-29T12:15:33.151Z,55.45
2022-08-29T12:18:03.805Z,57.40
2022-08-29T12:20:30.794Z,60.40
2022-08-29T12:23:03.850Z,69.13
2022-08-29T12:25:44.661Z,57.25
2022-08-29T12:28:20.974Z,39.90
2022-08-29T12:31:08.350Z,23.95
2022-08-29T12:34:01.207Z,15.77
2022-08-29T12:36:36.581Z,8.52
2022-08-29T12:39:29.364Z,4.20
2022-08-29T12:42:09.095Z,2.63
2022-08-29T12:44:38.314Z,2.30
2022-08-29T12:47:14.226Z,1.83
2022-08-29T12:49:51.747Z,1.70
2022-08-29T12:52:21.137Z,1.77
2022-08-29T12:54:48.194Z,1.90
2022-08-29T12:57:33.015Z,1.48
2022-08-29T13:00:02.095Z,2.92
2022-08-29T13:02:32.557Z,2.05
2022-08-29T13:05:00.283Z,2.30
2022-08-29T13:07:28.717Z,2.05
2022-08-29T13:09:59.019Z,2.53
2022-08-29T13:12:27.176Z,2.47
2022-08-29T13:14:56.059Z,2.30
2022-08-29T13:17:34.340Z,2.00
2022-08-29T13:20:38.692Z,2.03
2022-08-29T13:23:10.351Z,1.75
2022-08-29T13:25:44.052Z,1.90
2022-08-29T13:28:23.655Z,1.90
2022-08-29T13:31:29.687Z,3.00
2022-08-29T13:33:56.575Z,1.80
2022-08-29T13:36:40.871Z,3.15
2022-08-29T13:39:25.060Z,1.40
2022-08-29T13:41:57.573Z,1.75
2022-08-29T13:44:27.189Z,2.95
2022-08-29T13:47:01.204Z,1.83
2022-08-29T13:49:32.300Z,1.70
2022-08-29T13:52:00.762Z,1.80
2022-08-29T13:54:35.713Z,1.67
2022-08-29T13:57:07.895Z,2.78
2022-08-29T13:59:36.790Z,1.88
2022-08-29T14:02:11.513Z,3.13
2022-08-29T14:04:40.620Z,2.90
2022-08-29T14:07:12.041Z,2.80
2022-08-29T14:09:42.973Z,2.25
2022-08-29T14:12:14.041Z,1.95
2022-08-29T14:14:41.989Z,2.47
2022-08-29T14:17:09.018Z,2.08
2022-08-29T14:19:39.398Z,3.05
2022-08-29T14:22:06.216Z,1.90
2022-08-29T14:24:33.905Z,2.85
2022-08-29T14:27:02.699Z,1.60
2022-08-29T14:29:34.023Z,8.10
2022-08-29T14:32:03.194Z,2.85
2022-08-29T14:34:32.808Z,3.17
2022-08-29T14:37:01.122Z,4.18
2022-08-29T14:39:28.774Z,2.63
2022-08-29T14:41:59.475Z,2.30
2022-08-29T14:44:27.321Z,2.72
2022-08-29T14:46:54.106Z,4.97
2022-08-29T14:49:20.805Z,2.15
2022-08-29T14:51:47.586Z,2.60
2022-08-29T14:54:15.196Z,4.05
2022-08-29T14:56:50.611Z,2.50
2022-08-29T14:59:22.468Z,3.75
2022-08-29T15:01:54.333Z,3.47
2022-08-29T15:04:36.336Z,2.93
2022-08-29T15:07:11.696Z,2.08
2022-08-29T15:09:41.633Z,3.55
2022-08-29T15:12:11.506Z,2.47
2022-08-29T15:14:39.571Z,2.90
2022-08-29T15:17:06.504Z,2.65
2022-08-29T15:22:22.702Z,2.53
2022-08-29T15:24:50.782Z,3.13
2022-08-29T15:27:21.571Z,2.15
2022-08-29T15:29:50.517Z,2.92
2022-08-29T15:32:19.587Z,3.95
2022-08-29T15:34:49.311Z,2.50
2022-08-29T15:37:16.669Z,3.00
2022-08-29T15:39:43.519Z,3.50
2022-08-29T15:42:11.794Z,3.90
2022-08-29T15:44:44.089Z,2.55
2022-08-29T15:47:11.458Z,2.88
2022-08-29T15:49:39.484Z,3.60
2022-08-29T15:52:13.794Z,3.03
2022-08-29T15:54:40.815Z,2.97
2022-08-29T15:57:08.053Z,3.03
2022-08-29T15:59:57.112Z,4.77
2022-08-29T16:02:29.605Z,2.53
2022-08-29T16:04:58.974Z,3.10
2022-08-29T16:07:29.243Z,2.72
2022-08-29T16:10:01.057Z,4.88
2022-08-29T16:12:32.488Z,2.88
2022-08-29T16:15:01.052Z,2.50
2022-08-29T16:17:31.492Z,2.55
2022-08-29T16:20:00.428Z,2.78
2022-08-29T16:22:28.355Z,3.80
2022-08-29T16:24:55.060Z,2.70
2022-08-29T16:27:24.953Z,5.67
2022-08-29T16:29:53.202Z,2.50
2022-08-29T16:32:20.722Z,3.63
2022-08-29T16:34:47.354Z,2.47
2022-08-29T16:37:14.592Z,3.97
2022-08-29T16:39:41.305Z,2.55
2022-08-29T16:42:08.092Z,4.80
2022-08-29T16:44:34.840Z,3.88
2022-08-29T16:47:04.897Z,2.78
2022-08-29T16:49:31.685Z,3.10
2022-08-29T16:52:01.096Z,3.33
2022-08-29T16:54:28.516Z,2.35
2022-08-29T16:56:59.230Z,2.67
2022-08-29T16:59:37.106Z,3.15
2022-08-29T17:02:04.973Z,2.53
2022-08-29T17:04:31.717Z,3.13
2022-08-29T17:07:02.408Z,3.58
2022-08-29T17:09:30.638Z,3.75
2022-08-29T17:12:02.169Z,2.40
2022-08-29T17:14:30.372Z,3.15
2022-08-29T17:16:57.230Z,4.60
2022-08-29T17:19:24.908Z,2.70
2022-08-29T17:21:52.017Z,2.50
2022-08-29T17:24:18.949Z,3.45
2022-08-29T17:26:48.911Z,3.47
2022-08-29T17:29:18.463Z,2.88
2022-08-29T17:31:45.901Z,2.72
2022-08-29T17:34:12.860Z,2.17
2022-08-29T17:36:41.798Z,2.40
2022-08-29T17:39:08.954Z,2.00
2022-08-29T17:41:39.728Z,6.65
2022-08-29T17:44:09.957Z,2.33
2022-08-29T17:46:36.789Z,2.92
2022-08-29T17:49:07.871Z,3.05
2022-08-29T17:51:37.402Z,3.13
2022-08-29T17:54:10.368Z,4.03
2022-08-29T17:56:58.199Z,3.67
2022-08-29T17:59:28.756Z,2.22
2022-08-29T18:01:56.279Z,3.47
2022-08-29T18:04:31.973Z,3.10
2022-08-29T18:06:58.793Z,3.03
2022-08-29T18:09:25.858Z,3.13
2022-08-29T18:11:53.442Z,3.50
2022-08-29T18:14:23.745Z,3.45
2022-08-29T18:16:52.280Z,3.67
2022-08-29T18:19:22.023Z,4.13
2022-08-29T18:21:50.346Z,3.75
2022-08-29T18:24:17.772Z,4.10
2022-08-29T18:26:46.587Z,4.30
2022-08-29T18:29:13.385Z,4.10
2022-08-29T18:31:41.806Z,3.90
2022-08-29T18:34:12.827Z,4.20
2022-08-29T18:36:46.242Z,4.30
2022-08-29T18:39:15.195Z,5.20
2022-08-29T18:41:42.028Z,5.40
2022-08-29T18:44:11.934Z,6.03
2022-08-29T18:46:42.356Z,6.03
2022-08-29T18:49:17.373Z,7.05
2022-08-29T18:51:43.983Z,6.53
2022-08-29T18:54:10.606Z,6.90
2022-08-29T18:56:42.379Z,6.60
2022-08-29T18:59:09.098Z,8.93
2022-08-29T19:01:38.668Z,5.70
2022-08-29T19:04:06.512Z,6.30
2022-08-29T19:06:33.133Z,6.20
2022-08-29T19:09:00.100Z,7.45
2022-08-29T19:11:28.253Z,8.35
2022-08-29T19:13:55.092Z,10.95
2022-08-29T19:16:23.779Z,7.93
2022-08-29T19:18:51.452Z,6.57
2022-08-29T19:21:18.780Z,6.65
2022-08-29T19:23:52.706Z,8.98
2022-08-29T19:26:28.384Z,11.80
2022-08-29T19:29:01.313Z,14.80
2022-08-29T19:31:29.072Z,19.42
2022-08-29T19:33:56.457Z,21.88
2022-08-29T19:36:24.447Z,22.67
2022-08-29T19:38:52.522Z,23.17
2022-08-29T19:41:19.905Z,38.20
2022-08-29T19:43:46.633Z,25.95
2022-08-29T19:46:18.110Z,28.13
2022-08-29T19:48:48.685Z,37.63
2022-08-29T19:51:19.894Z,32.28
2022-08-29T19:53:48.451Z,34.50
2022-08-29T19:56:15.214Z,30.67
2022-08-29T19:58:42.867Z,42.47
2022-08-29T20:01:11.659Z,26.02
2022-08-29T20:03:40.608Z,27.75
2022-08-29T20:06:08.559Z,39.83
2022-08-29T20:08:41.798Z,31.80
2022-08-29T20:11:13.732Z,44.55
2022-08-29T20:13:41.036Z,35.15
2022-08-29T20:16:13.930Z,38.83
2022-08-29T20:18:42.590Z,39.83
2022-08-29T20:21:10.990Z,45.53
2022-08-29T20:23:38.576Z,47.53
2022-08-29T20:26:15.441Z,47.22
2022-08-29T20:28:42.401Z,43.63
2022-08-29T20:31:09.666Z,41.63
2022-08-29T20:33:39.711Z,61.72
2022-08-29T20:36:26.598Z,46.78
2022-08-29T20:38:54.338Z,53.92
2022-08-29T20:41:21.906Z,48.00
2022-08-29T20:43:49.040Z,50.80
2022-08-29T20:46:15.747Z,46.28
2022-08-29T20:48:42.565Z,60.38
2022-08-29T20:51:10.229Z,49.65
2022-08-29T20:53:42.871Z,62.57
2022-08-29T20:56:09.801Z,61.70
2022-08-29T20:58:38.708Z,51.28
2022-08-29T21:01:05.784Z,52.03
2022-08-29T21:03:57.510Z,48.83
2022-08-29T21:06:24.927Z,60.33
2022-08-29T21:08:53.822Z,58.70
2022-08-29T21:11:21.008Z,60.67
2022-08-29T21:13:53.351Z,51.03
2022-08-29T21:16:20.653Z,64.38
2022-08-29T21:18:53.208Z,53.20
2022-08-29T21:21:24.477Z,57.67
2022-08-29T21:23:55.805Z,67.72
2022-08-29T21:26:23.796Z,72.03
2022-08-29T21:28:51.908Z,74.07
2022-08-29T21:31:24.799Z,82.25
2022-08-29T21:33:51.640Z,77.55
2022-08-29T21:36:22.954Z,95.03
2022-08-29T21:38:54.157Z,83.18
2022-08-29T21:41:22.105Z,103.03
2022-08-29T21:43:48.841Z,97.95
2022-08-29T21:46:18.425Z,93.20
2022-08-29T21:48:45.835Z,137.23
2022-08-29T21:51:14.096Z,136.93
2022-08-29T21:53:42.513Z,129.35
2022-08-29T21:56:09.168Z,152.23
2022-08-29T21:58:37.113Z,147.80
2022-08-29T22:01:04.879Z,145.50
2022-08-29T22:03:31.562Z,145.30
2022-08-29T22:05:58.238Z,135.77
2022-08-29T22:08:25.765Z,139.38
2022-08-29T22:10:52.378Z,133.73
2022-08-29T22:13:19.084Z,145.35
2022-08-29T22:16:04.532Z,138.80
2022-08-29T22:18:31.377Z,146.57
2022-08-29T22:21:00.468Z,150.57
2022-08-29T22:23:27.267Z,155.82
2022-08-29T22:25:54.073Z,156.63
2022-08-29T22:28:21.255Z,145.82
2022-08-29T22:30:48.799Z,144.60
2022-08-29T22:33:16.372Z,155.65
2022-08-29T22:35:44.075Z,155.85
2022-08-29T22:38:10.913Z,139.98
2022-08-29T22:40:37.696Z,143.30
2022-08-29T22:43:04.435Z,153.53
2022-08-29T22:45:32.227Z,151.13
2022-08-29T22:47:58.959Z,149.13
2022-08-29T22:50:26.330Z,151.57
2022-08-29T22:52:57.084Z,156.82
2022-08-29T22:57:49.711Z,153.27
2022-08-29T23:00:19.661Z,146.73
2022-08-29T23:02:46.912Z,147.98
2022-08-29T23:05:13.892Z,158.88
2022-08-29T23:07:40.931Z,149.70
2022-08-29T23:10:10.071Z,150.25
2022-08-29T23:12:37.510Z,153.27
2022-08-29T23:15:08.144Z,159.88
2022-08-29T23:17:34.968Z,155.95
2022-08-29T23:20:02.055Z,156.18
2022-08-29T23:22:28.954Z,151.80
2022-08-29T23:24:58.375Z,151.73
2022-08-29T23:27:29.880Z,139.48
2022-08-29T23:29:57.410Z,132.15
2022-08-29T23:32:24.156Z,124.97
2022-08-29T23:34:52.130Z,128.80
2022-08-29T23:37:18.776Z,130.43
2022-08-29T23:39:46.725Z,113.22
2022-08-29T23:42:13.398Z,109.03
2022-08-29T23:44:40.017Z,111.20
2022-08-29T23:47:08.495Z,113.63
2022-08-29T23:49:35.557Z,104.05
2022-08-29T23:52:03.132Z,110.60
2022-08-29T23:54:31.423Z,117.97
2022-08-29T23:56:58.214Z,133.57
2022-08-29T23:59:43.548Z,134.83
